createdAt,value
2018-04-11T00:01:03.351Z,1.47
2018-04-11T00:03:32.851Z,1.20
2018-04-11T00:06:02.354Z,1.30
2018-04-11T00:08:31.845Z,1.00
2018-04-11T00:11:01.343Z,0.83
2018-04-11T00:13:30.832Z,1.33
2018-04-11T00:16:00.323Z,1.10
2018-04-11T00:18:29.836Z,1.20
2018-04-11T00:20:59.326Z,0.90
2018-04-11T00:23:29.214Z,0.97
2018-04-11T00:25:58.904Z,1.03
2018-04-11T00:28:28.415Z,0.70
2018-04-11T00:30:57.963Z,0.90
2018-04-11T00:33:27.459Z,1.00
2018-04-11T00:35:57.338Z,1.10
2018-04-11T00:38:26.831Z,1.20
2018-04-11T00:40:56.327Z,1.10
2018-04-11T00:43:25.844Z,1.40
2018-04-11T00:45:55.333Z,1.20
2018-04-11T00:48:24.826Z,1.63
2018-04-11T00:50:54.320Z,1.13
2018-04-11T00:53:27.649Z,0.93
2018-04-11T00:55:57.147Z,1.20
2018-04-11T00:58:26.638Z,1.10
2018-04-11T01:00:56.124Z,1.53
2018-04-11T01:03:25.618Z,1.10
2018-04-11T01:05:55.501Z,1.70
2018-04-11T01:08:24.996Z,1.33
2018-04-11T01:10:54.504Z,1.47
2018-04-11T01:13:24.004Z,1.70
2018-04-11T01:15:53.504Z,1.60
2018-04-11T01:18:23.007Z,1.80
2018-04-11T01:20:52.498Z,1.80
2018-04-11T01:23:21.997Z,1.70
2018-04-11T01:25:51.493Z,2.00
2018-04-11T01:28:20.988Z,1.63
2018-04-11T01:30:50.899Z,1.50
2018-04-11T01:33:20.783Z,1.97
2018-04-11T01:35:50.300Z,1.30
2018-04-11T01:38:19.799Z,1.23
2018-04-11T01:40:49.292Z,1.20
2018-04-11T01:43:18.555Z,1.20
2018-04-11T01:45:48.065Z,1.50
2018-04-11T01:48:17.558Z,1.07
2018-04-11T01:50:47.798Z,1.23
2018-04-11T01:53:17.302Z,1.80
2018-04-11T01:55:46.797Z,1.50
2018-04-11T01:58:16.854Z,1.47
2018-04-11T02:00:46.353Z,1.80
2018-04-11T02:03:15.876Z,1.37
2018-04-11T02:05:45.390Z,1.73
2018-04-11T02:08:14.892Z,1.40
2018-04-11T02:10:44.170Z,1.73
2018-04-11T02:13:13.660Z,1.83
2018-04-11T02:15:43.163Z,1.90
2018-04-11T02:18:12.455Z,2.07
2018-04-11T02:20:41.941Z,2.07
2018-04-11T02:23:11.448Z,1.80
2018-04-11T02:25:40.949Z,2.57
2018-04-11T02:28:10.835Z,1.93
2018-04-11T02:30:40.327Z,3.10
2018-04-11T02:33:10.016Z,2.70
2018-04-11T02:35:39.517Z,2.63
2018-04-11T02:38:09.022Z,2.60
2018-04-11T02:40:38.520Z,2.70
2018-04-11T02:43:08.020Z,3.10
2018-04-11T02:45:37.511Z,3.07
2018-04-11T02:48:07.011Z,2.80
2018-04-11T02:50:36.905Z,2.80
2018-04-11T02:53:06.807Z,3.03
2018-04-11T02:55:36.309Z,2.57
2018-04-11T02:58:05.806Z,3.10
2018-04-11T03:00:35.288Z,2.37
2018-04-11T03:03:04.819Z,2.20
2018-04-11T03:05:34.317Z,1.90
2018-04-11T03:08:03.822Z,1.90
2018-04-11T03:10:33.516Z,1.90
2018-04-11T03:13:03.004Z,1.80
2018-04-11T03:15:32.488Z,1.93
2018-04-11T03:18:02.372Z,1.87
2018-04-11T03:20:31.863Z,2.47
2018-04-11T03:23:02.262Z,2.23
2018-04-11T03:25:31.760Z,2.33
2018-04-11T03:28:01.254Z,2.30
2018-04-11T03:30:30.753Z,3.10
2018-04-11T03:33:00.654Z,2.63
2018-04-11T03:35:30.574Z,2.57
2018-04-11T03:38:00.470Z,2.37
2018-04-11T03:40:29.984Z,2.50
2018-04-11T03:42:59.478Z,3.00
2018-04-11T03:45:28.987Z,3.80
2018-04-11T03:47:58.519Z,3.87
2018-04-11T03:50:28.397Z,3.87
2018-04-11T03:52:57.887Z,4.17
2018-04-11T03:55:27.395Z,4.03
2018-04-11T03:57:56.896Z,3.90
2018-04-11T04:00:26.431Z,3.80
2018-04-11T04:02:55.946Z,3.30
2018-04-11T04:05:25.838Z,2.97
2018-04-11T04:07:55.326Z,4.37
2018-04-11T04:10:24.822Z,4.70
2018-04-11T04:12:54.392Z,5.20
2018-04-11T04:15:41.184Z,5.00
2018-04-11T04:18:27.334Z,5.50
2018-04-11T04:20:56.832Z,5.23
2018-04-11T04:23:26.330Z,4.97
2018-04-11T04:25:55.589Z,4.60
2018-04-11T04:28:25.074Z,4.10
2018-04-11T04:30:54.645Z,3.93
2018-04-11T04:33:24.139Z,3.47
2018-04-11T04:35:53.636Z,2.60
2018-04-11T04:38:23.149Z,2.67
2018-04-11T04:40:52.669Z,2.33
2018-04-11T04:43:22.155Z,2.30
2018-04-11T04:45:51.643Z,2.30
2018-04-11T04:48:21.545Z,2.07
2018-04-11T04:50:50.483Z,2.17
2018-04-11T04:53:20.011Z,2.60
2018-04-11T04:55:49.542Z,2.50
2018-04-11T04:58:19.241Z,2.53
2018-04-11T05:00:48.735Z,2.40
2018-04-11T05:03:18.237Z,2.20
2018-04-11T05:05:47.750Z,2.53
2018-04-11T05:08:17.245Z,2.43
2018-04-11T05:10:46.754Z,2.43
2018-04-11T05:13:16.259Z,2.37
2018-04-11T05:15:45.537Z,2.60
2018-04-11T05:18:15.031Z,2.30
2018-04-11T05:20:44.516Z,2.70
2018-04-11T05:23:14.402Z,2.50
2018-04-11T05:25:43.905Z,2.60
2018-04-11T05:28:13.201Z,2.23
2018-04-11T05:30:42.855Z,3.07
2018-04-11T05:33:12.746Z,3.63
2018-04-11T05:35:42.013Z,3.97
2018-04-11T05:38:11.262Z,4.07
2018-04-11T05:40:40.916Z,3.60
2018-04-11T05:43:10.400Z,3.03
2018-04-11T05:45:39.648Z,2.60
2018-04-11T05:48:09.141Z,2.63
2018-04-11T05:50:39.438Z,2.70
2018-04-11T05:53:09.171Z,2.60
2018-04-11T05:55:39.798Z,2.30
2018-04-11T05:58:09.306Z,2.50
2018-04-11T06:00:39.058Z,2.40
2018-04-11T06:03:08.954Z,2.50
2018-04-11T06:05:38.486Z,2.20
2018-04-11T06:08:08.384Z,2.30
2018-04-11T06:10:37.882Z,2.10
2018-04-11T06:13:07.401Z,2.43
2018-04-11T06:15:37.296Z,2.20
2018-04-11T06:18:06.791Z,2.47
2018-04-11T06:20:36.320Z,2.47
2018-04-11T06:23:05.804Z,3.33
2018-04-11T06:25:35.500Z,2.80
2018-04-11T06:28:05.091Z,3.23
2018-04-11T06:30:34.733Z,3.73
2018-04-11T06:33:04.213Z,3.40
2018-04-11T06:35:33.705Z,3.37
2018-04-11T06:38:03.210Z,6.77
2018-04-11T06:40:32.711Z,3.30
2018-04-11T06:43:02.223Z,2.83
2018-04-11T06:45:31.723Z,2.73
2018-04-11T06:48:01.229Z,3.00
2018-04-11T06:50:30.735Z,3.00
2018-04-11T06:53:00.240Z,2.77
2018-04-11T06:55:29.751Z,2.50
2018-04-11T06:57:59.269Z,3.60
2018-04-11T07:00:28.765Z,4.17
2018-04-11T07:02:58.262Z,4.17
2018-04-11T07:05:27.761Z,4.67
2018-04-11T07:07:57.256Z,5.57
2018-04-11T07:10:27.141Z,5.13
2018-04-11T07:12:56.651Z,5.03
2018-04-11T07:15:26.144Z,5.20
2018-04-11T07:17:55.645Z,6.43
2018-04-11T07:20:25.105Z,5.60
2018-04-11T07:22:54.637Z,5.50
2018-04-11T07:25:24.135Z,4.90
2018-04-11T07:27:53.629Z,5.07
2018-04-11T07:30:23.121Z,4.70
2018-04-11T07:32:52.621Z,4.80
2018-04-11T07:35:22.529Z,5.90
2018-04-11T07:37:52.421Z,6.37
2018-04-11T07:40:21.992Z,6.80
2018-04-11T07:42:52.035Z,6.30
2018-04-11T07:45:21.539Z,6.47
2018-04-11T07:47:51.067Z,6.20
2018-04-11T07:50:20.559Z,6.13
2018-04-11T07:52:50.799Z,6.30
2018-04-11T07:55:20.704Z,6.63
2018-04-11T07:57:50.213Z,6.10
2018-04-11T08:00:19.898Z,6.37
2018-04-11T08:02:49.450Z,6.70
2018-04-11T08:05:18.737Z,7.13
2018-04-11T08:07:48.279Z,6.67
2018-04-11T08:10:17.787Z,6.03
2018-04-11T08:12:47.272Z,6.30
2018-04-11T08:15:16.782Z,6.83
2018-04-11T08:17:46.279Z,7.53
2018-04-11T08:20:15.935Z,7.60
2018-04-11T08:22:45.462Z,6.70
2018-04-11T08:25:14.963Z,6.93
2018-04-11T08:27:44.427Z,6.47
2018-04-11T08:30:13.909Z,6.43
2018-04-11T08:32:43.189Z,7.23
2018-04-11T08:35:12.683Z,7.10
2018-04-11T08:37:42.187Z,6.87
2018-04-11T08:40:11.679Z,7.00
2018-04-11T08:42:41.180Z,6.77
2018-04-11T08:45:10.672Z,6.73
2018-04-11T08:47:40.175Z,7.23
2018-04-11T08:50:09.679Z,8.40
2018-04-11T08:52:39.184Z,7.23
2018-04-11T08:55:08.677Z,6.57
2018-04-11T08:57:38.171Z,7.43
2018-04-11T09:00:07.662Z,6.80
2018-04-11T09:02:37.545Z,6.80
2018-04-11T09:05:07.063Z,7.10
2018-04-11T09:07:36.321Z,7.00
2018-04-11T09:10:05.819Z,7.33
2018-04-11T09:12:35.329Z,6.67
2018-04-11T09:15:04.832Z,7.30
2018-04-11T09:17:34.334Z,6.97
2018-04-11T09:20:03.825Z,6.80
2018-04-11T09:22:33.358Z,6.40
2018-04-11T09:25:02.864Z,6.20
2018-04-11T09:27:32.405Z,6.47
2018-04-11T09:30:01.928Z,6.10
2018-04-11T09:32:31.813Z,5.77
2018-04-11T09:35:01.065Z,5.43
2018-04-11T09:37:30.569Z,5.70
2018-04-11T09:40:00.057Z,5.13
2018-04-11T09:42:29.962Z,5.47
2018-04-11T09:44:59.459Z,4.50
2018-04-11T09:47:28.949Z,4.90
2018-04-11T09:49:58.452Z,4.30
2018-04-11T09:52:27.944Z,4.80
2018-04-11T09:54:57.441Z,4.20
2018-04-11T09:57:26.938Z,3.30
2018-04-11T09:59:56.422Z,3.60
2018-04-11T10:02:25.686Z,3.53
2018-04-11T10:05:04.298Z,4.40
2018-04-11T10:07:33.815Z,3.33
2018-04-11T10:10:03.329Z,3.50
2018-04-11T10:12:32.822Z,3.87
2018-04-11T10:15:02.332Z,3.47
2018-04-11T10:17:31.833Z,3.90
2018-04-11T10:20:01.328Z,3.60
2018-04-11T10:22:30.613Z,3.23
2018-04-11T10:24:59.888Z,2.87
2018-04-11T10:27:29.377Z,2.67
2018-04-11T10:29:59.300Z,3.00
2018-04-11T10:32:29.378Z,2.40
2018-04-11T10:34:58.870Z,2.93
2018-04-11T10:37:28.363Z,2.53
2018-04-11T10:39:57.865Z,2.83
2018-04-11T10:42:27.366Z,2.33
2018-04-11T10:44:56.868Z,2.83
2018-04-11T10:47:26.352Z,2.73
2018-04-11T10:49:55.856Z,2.60
2018-04-11T10:52:25.348Z,2.00
2018-04-11T10:54:55.266Z,2.23
2018-04-11T10:57:25.158Z,2.70
2018-04-11T10:59:54.668Z,2.60
2018-04-11T11:02:24.165Z,2.20
2018-04-11T11:04:53.442Z,1.43
2018-04-11T11:07:22.943Z,1.90
2018-04-11T11:09:52.226Z,1.70
2018-04-11T11:12:21.718Z,1.30
2018-04-11T11:14:51.216Z,2.07
2018-04-11T11:17:21.100Z,1.70
2018-04-11T11:20:02.307Z,1.87
2018-04-11T11:22:31.842Z,1.70
2018-04-11T11:25:00.780Z,2.17
2018-04-11T11:27:30.272Z,2.77
2018-04-11T11:29:59.772Z,3.17
2018-04-11T11:32:29.277Z,1.90
2018-04-11T11:34:58.546Z,2.20
2018-04-11T11:37:27.809Z,2.70
2018-04-11T11:39:57.487Z,2.30
2018-04-11T11:42:27.061Z,2.13
2018-04-11T11:44:56.556Z,2.10
2018-04-11T11:47:26.046Z,2.03
2018-04-11T11:49:55.376Z,1.87
2018-04-11T11:52:24.875Z,2.80
2018-04-11T11:54:54.380Z,2.60
2018-04-11T11:57:23.945Z,2.10
2018-04-11T11:59:53.588Z,2.50
2018-04-11T12:02:23.107Z,2.60
2018-04-11T12:04:52.623Z,3.30
2018-04-11T12:07:22.284Z,2.40
2018-04-11T12:09:51.775Z,2.30
2018-04-11T12:12:21.284Z,2.50
2018-04-11T12:14:50.777Z,2.47
2018-04-11T12:17:20.309Z,3.03
2018-04-11T12:19:50.210Z,2.90
2018-04-11T12:22:19.729Z,3.00
2018-04-11T12:24:49.420Z,2.90
2018-04-11T12:27:19.112Z,3.07
2018-04-11T12:29:48.647Z,2.97
2018-04-11T12:32:18.134Z,2.60
2018-04-11T12:34:47.622Z,2.47
2018-04-11T12:37:17.140Z,2.57
2018-04-11T12:39:46.825Z,2.30
2018-04-11T12:42:16.530Z,2.53
2018-04-11T12:44:46.040Z,2.17
2018-04-11T12:47:15.530Z,2.47
2018-04-11T12:49:45.059Z,2.90
2018-04-11T12:52:14.562Z,2.70
2018-04-11T12:54:43.817Z,2.50
2018-04-11T12:57:13.528Z,2.00
2018-04-11T12:59:43.415Z,1.87
2018-04-11T13:02:12.918Z,2.40
2018-04-11T13:04:42.407Z,2.17
2018-04-11T13:07:11.905Z,2.63
2018-04-11T13:09:41.402Z,3.00
2018-04-11T13:12:10.674Z,2.23
2018-04-11T13:14:40.564Z,2.50
2018-04-11T13:17:10.076Z,2.60
2018-04-11T13:19:39.256Z,2.30
2018-04-11T13:22:08.747Z,2.33
2018-04-11T13:24:38.240Z,1.63
2018-04-11T13:27:07.738Z,3.23
2018-04-11T13:29:37.248Z,2.40
2018-04-11T13:32:06.752Z,2.60
2018-04-11T13:34:36.301Z,2.50
2018-04-11T13:37:05.742Z,2.30
2018-04-11T13:39:35.434Z,2.73
2018-04-11T13:42:05.334Z,2.80
2018-04-11T13:44:34.597Z,2.57
2018-04-11T13:47:03.890Z,2.80
2018-04-11T13:49:33.612Z,3.00
2018-04-11T13:52:03.658Z,3.10
2018-04-11T13:54:33.185Z,2.53
2018-04-11T13:57:03.089Z,2.97
2018-04-11T13:59:32.591Z,2.53
2018-04-11T14:02:02.503Z,2.37
2018-04-11T14:04:31.764Z,2.33
2018-04-11T14:07:01.269Z,2.60
2018-04-11T14:09:30.740Z,2.13
2018-04-11T14:12:00.022Z,2.67
2018-04-11T14:14:29.977Z,1.87
2018-04-11T14:16:59.410Z,2.33
2018-04-11T14:19:28.687Z,2.10
2018-04-11T14:21:58.199Z,2.30
2018-04-11T14:24:27.468Z,3.23
2018-04-11T14:26:56.970Z,2.60
2018-04-11T14:29:26.650Z,1.90
2018-04-11T14:31:56.155Z,2.63
2018-04-11T14:34:25.657Z,2.33
2018-04-11T14:36:55.166Z,1.90
2018-04-11T14:39:24.658Z,1.90
2018-04-11T14:41:54.156Z,2.40
2018-04-11T14:44:23.437Z,2.23
2018-04-11T14:46:52.898Z,2.60
2018-04-11T14:49:22.808Z,1.97
2018-04-11T14:51:52.726Z,1.37
2018-04-11T14:54:22.627Z,1.83
2018-04-11T14:56:52.159Z,1.63
2018-04-11T14:59:22.049Z,1.33
2018-04-11T15:01:51.540Z,1.50
2018-04-11T15:04:21.047Z,1.40
2018-04-11T15:06:50.564Z,1.47
2018-04-11T15:09:20.250Z,1.87
2018-04-11T15:11:49.605Z,1.37
2018-04-11T15:14:19.500Z,1.43
2018-04-11T15:16:49.024Z,1.83
2018-04-11T15:19:18.534Z,1.73
2018-04-11T15:21:48.024Z,1.83
2018-04-11T15:24:17.941Z,1.50
2018-04-11T15:26:47.852Z,1.90
2018-04-11T15:29:17.783Z,2.10
2018-04-11T15:31:47.677Z,1.87
2018-04-11T15:34:17.228Z,1.17
2018-04-11T15:36:46.869Z,1.30
2018-04-11T15:39:16.366Z,1.57
2018-04-11T15:41:45.637Z,1.60
2018-04-11T15:44:15.135Z,1.53
2018-04-11T15:46:44.302Z,2.07
2018-04-11T15:49:14.195Z,1.40
2018-04-11T15:51:43.891Z,1.90
2018-04-11T15:54:13.383Z,1.70
2018-04-11T15:56:42.885Z,2.23
2018-04-11T15:59:12.383Z,1.80
2018-04-11T16:01:41.873Z,1.47
2018-04-11T16:04:11.421Z,1.40
2018-04-11T16:06:40.682Z,1.73
2018-04-11T16:09:10.200Z,1.30
2018-04-11T16:11:39.701Z,1.30
2018-04-11T16:14:09.197Z,1.57
2018-04-11T16:16:38.693Z,1.60
2018-04-11T16:19:08.665Z,1.70
2018-04-11T16:21:38.695Z,1.50
2018-04-11T16:24:08.236Z,1.47
2018-04-11T16:26:38.175Z,1.30
2018-04-11T16:29:07.683Z,1.33
2018-04-11T16:31:37.198Z,1.70
2018-04-11T16:34:06.695Z,1.63
2018-04-11T16:36:36.180Z,1.33
2018-04-11T16:39:04.773Z,1.20
2018-04-11T16:41:34.029Z,1.33
2018-04-11T16:44:03.539Z,2.03
2018-04-11T16:46:33.035Z,1.83
2018-04-11T16:49:02.532Z,1.50
2018-04-11T16:51:31.737Z,1.37
2018-04-11T16:54:01.015Z,1.53
2018-04-11T16:56:30.522Z,1.00
2018-04-11T16:59:00.019Z,1.20
2018-04-11T17:01:29.531Z,1.20
2018-04-11T17:03:58.828Z,1.50
2018-04-11T17:06:28.327Z,0.87
2018-04-11T17:08:57.825Z,1.00
2018-04-11T17:11:27.096Z,1.00
2018-04-11T17:13:56.382Z,0.93
2018-04-11T17:16:25.638Z,1.10
2018-04-11T17:18:54.897Z,1.00
2018-04-11T17:21:41.255Z,0.93
2018-04-11T17:24:27.655Z,1.20
2018-04-11T17:27:14.172Z,1.27
2018-04-11T17:30:00.543Z,1.00
2018-04-11T17:32:30.023Z,1.13
2018-04-11T17:34:59.511Z,1.03
2018-04-11T17:37:29.418Z,0.70
2018-04-11T17:39:59.350Z,1.33
2018-04-11T17:42:29.236Z,1.20
2018-04-11T17:44:58.517Z,1.33
2018-04-11T17:47:28.013Z,1.03
2018-04-11T17:49:57.285Z,1.63
2018-04-11T17:52:26.772Z,1.57
2018-04-11T17:54:56.679Z,1.60
2018-04-11T17:57:26.589Z,1.40
2018-04-11T17:59:56.283Z,1.60
2018-04-11T18:02:25.791Z,1.60
2018-04-11T18:04:55.291Z,1.27
2018-04-11T18:07:24.827Z,1.40
2018-04-11T18:09:54.931Z,1.07
2018-04-11T18:12:24.426Z,1.30
2018-04-11T18:14:53.967Z,1.30
2018-04-11T18:17:23.471Z,1.30
2018-04-11T18:19:52.974Z,1.30
2018-04-11T18:22:22.491Z,1.40
2018-04-11T18:24:52.004Z,1.27
2018-04-11T18:27:21.525Z,1.53
2018-04-11T18:29:51.135Z,1.63
2018-04-11T18:32:20.785Z,4.40
2018-04-11T18:34:50.297Z,5.17
2018-04-11T18:37:20.197Z,3.30
2018-04-11T18:39:50.797Z,1.90
2018-04-11T18:42:20.111Z,2.37
2018-04-11T18:44:49.613Z,1.43
2018-04-11T18:47:19.150Z,1.93
2018-04-11T18:49:48.519Z,2.40
2018-04-11T18:52:18.013Z,2.03
2018-04-11T18:54:47.570Z,1.80
2018-04-11T18:57:17.073Z,2.23
2018-04-11T18:59:46.573Z,2.00
2018-04-11T19:02:16.089Z,1.90
2018-04-11T19:04:45.981Z,1.60
2018-04-11T19:07:15.473Z,1.97
2018-04-11T19:09:44.969Z,2.17
2018-04-11T19:12:14.483Z,2.87
2018-04-11T19:14:43.981Z,3.17
2018-04-11T19:17:13.475Z,3.27
2018-04-11T19:19:42.990Z,3.77
2018-04-11T19:22:12.496Z,3.23
2018-04-11T19:24:41.996Z,4.30
2018-04-11T19:27:11.279Z,4.40
2018-04-11T19:29:40.794Z,4.77
2018-04-11T19:32:10.296Z,4.80
2018-04-11T19:34:39.805Z,4.30
2018-04-11T19:37:09.304Z,4.83
2018-04-11T19:39:38.813Z,4.50
2018-04-11T19:42:09.255Z,4.87
2018-04-11T19:44:38.518Z,5.20
2018-04-11T19:47:08.260Z,5.03
2018-04-11T19:49:37.550Z,4.80
2018-04-11T19:52:06.816Z,5.23
2018-04-11T19:54:36.089Z,5.00
2018-04-11T19:57:05.590Z,5.27
2018-04-11T19:59:35.071Z,4.80
2018-04-11T20:02:04.596Z,5.20
2018-04-11T20:04:34.037Z,5.33
2018-04-11T20:07:03.479Z,5.53
2018-04-11T20:09:33.534Z,4.80
2018-04-11T20:12:02.786Z,5.40
2018-04-11T20:14:32.060Z,5.30
2018-04-11T20:17:01.314Z,5.80
2018-04-11T20:19:30.578Z,5.40
2018-04-11T20:22:00.465Z,5.80
2018-04-11T20:24:29.735Z,6.07
2018-04-11T20:26:59.249Z,5.77
2018-04-11T20:29:28.749Z,6.53
2018-04-11T20:31:58.245Z,6.13
2018-04-11T20:34:27.735Z,6.40
2018-04-11T20:36:57.240Z,7.00
2018-04-11T20:39:26.733Z,6.60
2018-04-11T20:41:56.263Z,6.53
2018-04-11T20:44:25.526Z,6.27
2018-04-11T20:46:55.411Z,6.43
2018-04-11T20:49:25.206Z,7.05
2018-04-11T20:51:54.891Z,7.07
2018-04-11T20:54:24.397Z,6.80
2018-04-11T20:56:53.912Z,6.80
2018-04-11T20:59:23.406Z,7.63
2018-04-11T21:01:52.566Z,7.17
2018-04-11T21:04:22.498Z,6.70
2018-04-11T21:06:52.411Z,7.37
2018-04-11T21:09:22.310Z,7.33
2018-04-11T21:11:52.016Z,7.07
2018-04-11T21:14:21.517Z,6.97
2018-04-11T21:16:51.033Z,7.60
2018-04-11T21:19:20.728Z,7.47
2018-04-11T21:21:50.249Z,8.00
2018-04-11T21:24:20.172Z,7.00
2018-04-11T21:26:50.064Z,6.50
2018-04-11T21:29:19.568Z,6.73
2018-04-11T21:31:49.088Z,6.43
2018-04-11T21:34:18.598Z,6.50
2018-04-11T21:36:48.489Z,6.37
2018-04-11T21:39:17.998Z,7.13
2018-04-11T21:41:47.498Z,7.13
2018-04-11T21:44:17.001Z,6.40
2018-04-11T21:46:46.507Z,6.23
2018-04-11T21:49:16.247Z,5.83
2018-04-11T21:51:45.953Z,6.73
2018-04-11T21:54:15.604Z,6.03
2018-04-11T21:56:45.689Z,6.30
2018-04-11T21:59:15.600Z,5.57
2018-04-11T22:01:45.550Z,5.40
2018-04-11T22:04:15.060Z,5.17
2018-04-11T22:06:44.573Z,5.23
2018-04-11T22:09:14.102Z,6.10
2018-04-11T22:11:43.652Z,5.33
2018-04-11T22:14:13.566Z,5.70
2018-04-11T22:16:43.448Z,5.00
2018-04-11T22:19:12.948Z,5.70
2018-04-11T22:21:42.486Z,5.43
2018-04-11T22:24:12.388Z,5.90
2018-04-11T22:26:41.660Z,5.23
2018-04-11T22:29:11.172Z,4.83
2018-04-11T22:31:40.678Z,5.23
2018-04-11T22:34:10.190Z,5.03
2018-04-11T22:36:39.696Z,5.47
2018-04-11T22:39:09.189Z,5.40
2018-04-11T22:41:39.106Z,5.27
2018-04-11T22:44:08.605Z,5.83
2018-04-11T22:46:38.113Z,5.23
2018-04-11T22:49:07.618Z,6.03
2018-04-11T22:51:37.115Z,6.27
2018-04-11T22:54:06.636Z,6.57
2018-04-11T22:56:35.907Z,6.87
2018-04-11T22:59:05.415Z,6.83
2018-04-11T23:01:34.937Z,6.87
2018-04-11T23:04:04.640Z,6.90
2018-04-11T23:06:34.134Z,6.30
2018-04-11T23:09:03.414Z,6.77
2018-04-11T23:11:32.863Z,6.77
2018-04-11T23:14:02.163Z,6.23
2018-04-11T23:16:31.664Z,5.40
2018-04-11T23:19:01.165Z,5.60
2018-04-11T23:21:30.704Z,5.10
2018-04-11T23:23:59.973Z,4.70
2018-04-11T23:26:29.468Z,4.53
2018-04-11T23:28:58.970Z,4.73
2018-04-11T23:31:28.474Z,5.17
2018-04-11T23:33:57.977Z,4.50
2018-04-11T23:36:27.499Z,5.40
2018-04-11T23:38:56.997Z,5.80
2018-04-11T23:41:26.256Z,5.50
2018-04-11T23:43:56.162Z,5.60
2018-04-11T23:46:25.666Z,6.00
2018-04-11T23:48:55.177Z,6.17
2018-04-11T23:51:25.092Z,5.77
2018-04-11T23:53:54.978Z,6.17
2018-04-11T23:56:24.474Z,6.03
2018-04-11T23:58:53.985Z,6.20
